createdAt,value
2024-03-07T00:00:56.151Z,70.40
2024-03-07T00:03:25.473Z,56.13
2024-03-07T00:05:53.383Z,52.70
2024-03-07T00:09:17.403Z,58.23
2024-03-07T00:11:46.662Z,47.80
2024-03-07T00:14:28.313Z,40.40
2024-03-07T00:16:56.725Z,40.63
2024-03-07T00:19:26.981Z,38.77
2024-03-07T00:29:31.385Z,40.17
2024-03-07T00:31:59.781Z,35.27
2024-03-07T00:34:27.780Z,38.03
2024-03-07T00:36:57.302Z,35.10
2024-03-07T00:39:25.104Z,36.87
2024-03-07T00:49:22.123Z,30.90
2024-03-07T00:51:51.218Z,30.87
2024-03-07T00:54:18.850Z,33.73
2024-03-07T00:56:46.682Z,31.63
2024-03-07T00:59:15.612Z,33.00
2024-03-07T01:01:43.493Z,34.23
2024-03-07T01:04:11.464Z,30.00
2024-03-07T01:06:41.839Z,30.67
2024-03-07T01:09:15.022Z,31.67
2024-03-07T01:11:43.242Z,33.07
2024-03-07T01:14:11.139Z,30.37
2024-03-07T01:16:38.907Z,33.20
2024-03-07T01:19:07.272Z,32.60
2024-03-07T01:21:37.907Z,32.53
2024-03-07T01:24:08.259Z,30.63
2024-03-07T01:26:36.051Z,34.17
2024-03-07T01:29:03.826Z,32.87
2024-03-07T01:31:31.529Z,30.83
2024-03-07T01:33:59.134Z,30.80
2024-03-07T01:36:26.803Z,36.20
2024-03-07T01:38:54.625Z,31.33
2024-03-07T01:41:23.807Z,32.50
2024-03-07T01:43:51.430Z,33.20
2024-03-07T01:46:20.678Z,33.60
2024-03-07T01:48:49.217Z,34.30
2024-03-07T01:51:17.470Z,33.83
2024-03-07T01:53:46.778Z,32.27
2024-03-07T01:56:14.712Z,36.27
2024-03-07T01:58:45.057Z,31.20
2024-03-07T02:01:15.639Z,29.97
2024-03-07T02:03:43.953Z,29.60
2024-03-07T02:06:13.146Z,28.40
2024-03-07T02:08:40.970Z,29.43
2024-03-07T02:11:10.781Z,29.67
2024-03-07T02:13:38.674Z,28.40
2024-03-07T02:16:08.701Z,29.17
2024-03-07T02:18:39.269Z,28.57
2024-03-07T02:21:10.087Z,31.37
2024-03-07T02:23:38.125Z,30.23
2024-03-07T02:26:06.075Z,29.37
2024-03-07T02:28:33.700Z,29.50
2024-03-07T02:31:01.434Z,28.93
2024-03-07T02:33:29.086Z,28.07
2024-03-07T02:35:56.820Z,28.37
2024-03-07T02:38:25.845Z,27.80
2024-03-07T02:40:53.924Z,26.63
2024-03-07T02:43:22.415Z,26.17
2024-03-07T02:45:51.410Z,26.57
2024-03-07T02:48:19.760Z,26.40
2024-03-07T02:50:48.717Z,25.27
2024-03-07T02:53:16.584Z,26.23
2024-03-07T02:55:45.743Z,26.90
2024-03-07T02:58:13.489Z,27.47
2024-03-07T03:00:41.085Z,25.80
2024-03-07T03:03:08.787Z,26.67
2024-03-07T03:05:36.518Z,27.13
2024-03-07T03:08:08.047Z,25.33
2024-03-07T03:10:35.786Z,25.03
2024-03-07T03:13:05.313Z,24.13
2024-03-07T03:15:33.199Z,26.90
2024-03-07T03:18:02.108Z,26.77
2024-03-07T03:20:35.254Z,24.70
2024-03-07T03:25:36.853Z,25.80
2024-03-07T03:28:07.520Z,26.23
2024-03-07T03:30:35.298Z,24.30
2024-03-07T03:33:03.058Z,26.40
2024-03-07T03:35:30.882Z,26.40
2024-03-07T03:37:58.540Z,26.20
2024-03-07T03:40:26.155Z,25.17
2024-03-07T03:42:53.978Z,23.80
2024-03-07T03:45:23.259Z,21.83
2024-03-07T03:47:51.020Z,22.63
2024-03-07T03:50:19.082Z,25.20
2024-03-07T03:52:46.841Z,23.27
2024-03-07T03:55:15.583Z,21.60
2024-03-07T03:57:44.537Z,23.80
2024-03-07T04:00:14.600Z,22.53
2024-03-07T04:02:44.805Z,24.40
2024-03-07T04:05:14.580Z,23.20
2024-03-07T04:07:42.949Z,22.17
2024-03-07T04:10:12.063Z,22.10
2024-03-07T04:12:41.181Z,24.90
2024-03-07T04:15:10.473Z,24.37
2024-03-07T04:17:38.770Z,24.80
2024-03-07T04:20:11.305Z,24.50
2024-03-07T04:22:40.357Z,24.13
2024-03-07T04:25:09.233Z,27.70
2024-03-07T04:27:38.066Z,24.77
2024-03-07T04:30:07.257Z,23.60
2024-03-07T04:32:35.835Z,21.20
2024-03-07T04:35:05.092Z,22.20
2024-03-07T04:37:37.304Z,21.93
2024-03-07T04:40:12.142Z,23.63
2024-03-07T04:42:39.716Z,22.27
2024-03-07T04:45:08.328Z,22.93
2024-03-07T04:47:36.092Z,21.00
2024-03-07T04:50:03.999Z,22.37
2024-03-07T04:52:31.726Z,22.03
2024-03-07T04:55:00.818Z,19.63
2024-03-07T04:57:28.940Z,22.47
2024-03-07T04:59:56.722Z,22.60
2024-03-07T05:02:25.356Z,23.27
2024-03-07T05:04:53.061Z,25.57
2024-03-07T05:07:20.920Z,26.53
2024-03-07T05:09:49.809Z,27.40
2024-03-07T05:12:19.024Z,26.60
2024-03-07T05:14:46.930Z,23.03
2024-03-07T05:17:14.887Z,23.50
2024-03-07T05:19:46.431Z,24.63
2024-03-07T05:22:17.037Z,22.83
2024-03-07T05:24:44.891Z,22.90
2024-03-07T05:27:13.732Z,21.20
2024-03-07T05:29:43.340Z,20.37
2024-03-07T05:32:24.609Z,22.30
2024-03-07T05:34:52.677Z,21.90
2024-03-07T05:37:21.212Z,21.67
2024-03-07T05:39:49.235Z,20.07
2024-03-07T05:42:16.935Z,20.20
2024-03-07T05:44:46.609Z,20.50
2024-03-07T05:47:15.532Z,24.20
2024-03-07T05:49:43.222Z,21.97
2024-03-07T05:52:11.251Z,21.63
2024-03-07T05:54:38.872Z,23.80
2024-03-07T05:57:08.192Z,23.83
2024-03-07T05:59:36.004Z,23.97
2024-03-07T06:02:06.125Z,22.77
2024-03-07T06:04:35.176Z,21.07
2024-03-07T06:07:03.157Z,23.47
2024-03-07T06:09:30.832Z,24.20
2024-03-07T06:11:58.711Z,22.60
2024-03-07T06:14:27.079Z,21.87
2024-03-07T06:16:54.783Z,21.37
2024-03-07T06:19:23.805Z,21.20
2024-03-07T06:21:53.588Z,22.80
2024-03-07T06:24:23.354Z,23.20
2024-03-07T06:27:01.150Z,24.10
2024-03-07T06:29:29.945Z,23.50
2024-03-07T06:31:57.585Z,22.03
2024-03-07T06:34:26.902Z,21.00
2024-03-07T06:36:56.446Z,18.93
2024-03-07T06:39:24.181Z,20.13
2024-03-07T06:41:51.943Z,19.30
2024-03-07T06:44:24.442Z,20.00
2024-03-07T06:46:52.384Z,21.13
2024-03-07T06:49:21.983Z,20.30
2024-03-07T06:51:51.098Z,19.63
2024-03-07T06:54:18.700Z,21.23
2024-03-07T06:56:46.336Z,19.83
2024-03-07T06:59:15.475Z,20.80
2024-03-07T07:01:44.274Z,19.90
2024-03-07T07:04:14.205Z,22.07
2024-03-07T07:06:43.959Z,21.47
2024-03-07T07:09:13.163Z,22.30
2024-03-07T07:11:41.523Z,21.37
2024-03-07T07:14:09.196Z,22.40
2024-03-07T07:16:37.397Z,21.40
2024-03-07T07:19:05.050Z,20.33
2024-03-07T07:21:32.675Z,21.97
2024-03-07T07:24:00.475Z,21.30
2024-03-07T07:26:29.616Z,19.83
2024-03-07T07:28:58.034Z,21.57
2024-03-07T07:31:26.349Z,21.33
2024-03-07T07:33:54.100Z,20.30
2024-03-07T07:36:21.987Z,20.50
2024-03-07T07:38:49.677Z,21.50
2024-03-07T07:41:17.438Z,21.87
2024-03-07T07:43:46.404Z,20.13
2024-03-07T07:46:14.112Z,21.60
2024-03-07T07:48:42.856Z,22.10
2024-03-07T07:51:10.761Z,21.40
2024-03-07T07:53:38.615Z,21.30
2024-03-07T07:56:06.882Z,20.83
2024-03-07T07:58:34.527Z,21.07
2024-03-07T08:01:04.105Z,19.50
2024-03-07T08:03:34.038Z,18.50
2024-03-07T08:06:01.788Z,18.17
2024-03-07T08:08:29.832Z,19.83
2024-03-07T08:10:57.731Z,19.10
2024-03-07T08:13:26.218Z,19.67
2024-03-07T08:15:55.016Z,19.57
2024-03-07T08:18:24.274Z,22.13
2024-03-07T08:20:56.183Z,22.57
2024-03-07T08:23:26.438Z,24.63
2024-03-07T08:25:54.301Z,23.97
2024-03-07T08:28:21.918Z,24.37
2024-03-07T08:30:49.535Z,23.80
2024-03-07T08:33:17.658Z,23.37
2024-03-07T08:35:46.733Z,24.03
2024-03-07T08:38:14.896Z,24.50
2024-03-07T08:40:43.506Z,24.53
2024-03-07T08:43:11.312Z,25.10
2024-03-07T08:45:39.405Z,24.60
2024-03-07T08:48:08.963Z,26.07
2024-03-07T08:50:38.468Z,22.93
2024-03-07T08:53:08.507Z,25.97
2024-03-07T08:55:38.188Z,24.23
2024-03-07T08:58:07.433Z,25.07
2024-03-07T09:00:38.621Z,25.20
2024-03-07T09:03:10.993Z,25.37
2024-03-07T09:05:40.128Z,24.70
2024-03-07T09:08:09.636Z,24.40
2024-03-07T09:10:37.658Z,23.63
2024-03-07T09:13:07.230Z,27.83
2024-03-07T09:15:34.934Z,24.87
2024-03-07T09:18:02.562Z,24.10
2024-03-07T09:20:32.220Z,27.23
2024-03-07T09:23:01.244Z,26.17
2024-03-07T09:25:34.016Z,24.83
2024-03-07T09:28:02.226Z,24.93
2024-03-07T09:30:31.563Z,26.73
2024-03-07T09:32:59.584Z,26.53
2024-03-07T09:35:27.878Z,28.43
2024-03-07T09:37:56.051Z,24.63
2024-03-07T09:40:27.581Z,26.90
2024-03-07T09:42:59.839Z,25.90
2024-03-07T09:45:32.611Z,26.87
2024-03-07T09:48:01.226Z,28.17
2024-03-07T09:50:32.577Z,27.60
2024-03-07T09:53:01.561Z,28.00
2024-03-07T09:55:29.543Z,26.97
2024-03-07T09:58:02.489Z,29.00
2024-03-07T10:00:31.588Z,29.00
2024-03-07T10:03:03.447Z,30.37
2024-03-07T10:05:33.375Z,29.33
2024-03-07T10:08:02.348Z,31.80
2024-03-07T10:10:31.360Z,30.80
2024-03-07T10:13:01.319Z,28.27
2024-03-07T10:15:30.731Z,28.30
2024-03-07T10:17:58.845Z,27.93
2024-03-07T10:20:26.679Z,30.13
2024-03-07T10:22:54.462Z,29.87
2024-03-07T10:25:25.447Z,28.90
2024-03-07T10:27:53.793Z,27.40
2024-03-07T10:30:23.636Z,30.67
2024-03-07T10:32:56.120Z,31.17
2024-03-07T10:35:25.692Z,32.43
2024-03-07T10:37:55.083Z,30.17
2024-03-07T10:40:23.790Z,27.50
2024-03-07T10:42:54.078Z,29.07
2024-03-07T10:45:24.731Z,27.10
2024-03-07T10:47:56.889Z,27.50
2024-03-07T10:50:41.805Z,25.73
2024-03-07T10:53:15.555Z,28.97
2024-03-07T10:55:55.198Z,28.67
2024-03-07T10:58:39.000Z,26.10
2024-03-07T11:01:12.170Z,26.10
2024-03-07T11:03:40.518Z,24.10
2024-03-07T11:06:12.444Z,25.70
2024-03-07T11:08:40.604Z,25.87
2024-03-07T11:11:08.659Z,28.43
2024-03-07T11:13:38.564Z,28.47
2024-03-07T11:16:10.898Z,28.63
2024-03-07T11:18:38.625Z,29.10
2024-03-07T11:21:09.110Z,28.20
2024-03-07T11:23:42.317Z,25.07
2024-03-07T11:26:12.657Z,26.73
2024-03-07T11:28:42.793Z,26.87
2024-03-07T11:31:14.681Z,26.40
2024-03-07T11:33:42.693Z,27.43
2024-03-07T11:36:13.147Z,27.20
2024-03-07T11:38:46.297Z,27.07
2024-03-07T11:41:14.827Z,25.03
2024-03-07T11:43:44.496Z,24.77
2024-03-07T11:46:17.910Z,24.33
2024-03-07T11:48:46.457Z,24.93
2024-03-07T11:51:16.634Z,24.00
2024-03-07T11:53:48.896Z,22.90
2024-03-07T11:56:18.660Z,22.80
2024-03-07T11:58:53.455Z,24.60
2024-03-07T12:01:26.373Z,23.43
2024-03-07T12:03:57.375Z,24.17
2024-03-07T12:06:25.548Z,25.33
2024-03-07T12:08:53.869Z,22.67
2024-03-07T12:11:22.369Z,23.47
2024-03-07T12:13:52.295Z,24.53
2024-03-07T12:16:19.981Z,24.20
2024-03-07T12:18:49.632Z,24.07
2024-03-07T12:21:18.372Z,21.60
2024-03-07T12:23:47.003Z,23.17
2024-03-07T12:26:18.050Z,23.20
2024-03-07T12:28:47.727Z,23.50
2024-03-07T12:31:18.006Z,22.90
2024-03-07T12:33:52.501Z,23.10
2024-03-07T12:36:23.840Z,24.43
2024-03-07T12:38:55.567Z,23.10
2024-03-07T12:41:24.946Z,23.50
2024-03-07T12:43:53.278Z,24.93
2024-03-07T12:46:21.003Z,23.73
2024-03-07T12:48:50.706Z,25.53
2024-03-07T12:51:20.573Z,24.80
2024-03-07T12:53:50.586Z,25.23
2024-03-07T12:56:18.863Z,23.57
2024-03-07T12:58:48.042Z,24.23
2024-03-07T13:01:16.894Z,26.40
2024-03-07T13:03:46.136Z,24.33
2024-03-07T13:06:14.408Z,24.40
2024-03-07T13:08:42.551Z,24.43
2024-03-07T13:11:13.050Z,24.93
2024-03-07T13:13:40.851Z,23.47
2024-03-07T13:16:10.357Z,26.30
2024-03-07T13:18:38.881Z,25.63
2024-03-07T13:21:08.110Z,25.33
2024-03-07T13:23:37.477Z,23.77
2024-03-07T13:26:10.185Z,23.93
2024-03-07T13:28:42.913Z,25.00
2024-03-07T13:31:12.373Z,25.70
2024-03-07T13:33:40.192Z,25.53
2024-03-07T13:36:08.829Z,24.33
2024-03-07T13:38:37.242Z,25.47
2024-03-07T13:41:05.281Z,26.77
2024-03-07T13:43:35.055Z,26.23
2024-03-07T13:46:05.023Z,27.23
2024-03-07T13:48:34.287Z,23.73
2024-03-07T13:51:02.434Z,25.20
2024-03-07T13:53:34.859Z,25.77
2024-03-07T13:56:41.609Z,25.87
2024-03-07T13:59:28.461Z,24.53
2024-03-07T14:02:11.349Z,26.10
2024-03-07T14:05:14.978Z,26.80
2024-03-07T14:07:59.621Z,24.60
2024-03-07T14:11:05.171Z,26.07
2024-03-07T14:13:43.971Z,25.57
2024-03-07T14:16:43.788Z,25.13
2024-03-07T14:19:48.038Z,27.50
2024-03-07T14:22:42.085Z,26.20
2024-03-07T14:25:39.583Z,25.30
2024-03-07T14:28:31.568Z,26.23
2024-03-07T14:30:59.764Z,27.23
2024-03-07T14:33:31.883Z,26.40
2024-03-07T14:36:06.775Z,28.17
2024-03-07T14:38:51.115Z,27.53
2024-03-07T14:41:20.946Z,27.20
2024-03-07T14:43:48.743Z,24.93
2024-03-07T14:46:18.884Z,27.43
2024-03-07T14:48:46.805Z,27.10
2024-03-07T14:51:15.886Z,29.23
2024-03-07T14:53:45.884Z,27.27
2024-03-07T14:56:13.594Z,26.43
2024-03-07T14:58:42.357Z,30.00
2024-03-07T15:01:10.280Z,27.23
2024-03-07T15:03:39.427Z,28.00
2024-03-07T15:06:09.378Z,28.17
2024-03-07T15:08:37.594Z,28.13
2024-03-07T15:11:15.064Z,29.53
2024-03-07T15:13:44.211Z,29.37
2024-03-07T15:16:25.212Z,28.60
2024-03-07T15:18:57.701Z,29.33
2024-03-07T15:21:25.434Z,27.57
2024-03-07T15:23:54.209Z,29.43
2024-03-07T15:26:25.214Z,29.07
2024-03-07T15:28:53.446Z,41.63
2024-03-07T15:31:21.492Z,28.40
2024-03-07T15:33:50.412Z,28.87
2024-03-07T15:36:18.922Z,30.23
2024-03-07T15:38:47.641Z,31.83
2024-03-07T15:41:15.873Z,28.40
2024-03-07T15:43:45.664Z,26.47
2024-03-07T15:46:14.104Z,27.53
2024-03-07T15:48:42.780Z,28.67
2024-03-07T15:51:11.970Z,28.77
2024-03-07T15:53:39.890Z,29.50
2024-03-07T15:56:08.382Z,27.93
2024-03-07T15:58:36.123Z,33.30
2024-03-07T16:01:07.081Z,27.40
2024-03-07T16:03:34.864Z,28.73
2024-03-07T16:06:03.361Z,27.57
2024-03-07T16:08:31.081Z,26.47
2024-03-07T16:10:59.050Z,27.10
2024-03-07T16:13:26.823Z,29.87
2024-03-07T16:15:54.575Z,28.23
2024-03-07T16:18:27.041Z,27.63
2024-03-07T16:20:57.308Z,27.97
2024-03-07T16:23:25.430Z,27.33
2024-03-07T16:25:53.286Z,27.50
2024-03-07T16:28:27.511Z,32.57
2024-03-07T16:30:57.161Z,36.70
2024-03-07T16:36:01.630Z,29.00
2024-03-07T16:38:29.912Z,31.10
2024-03-07T16:40:57.550Z,29.20
2024-03-07T16:43:26.263Z,29.27
2024-03-07T16:45:55.082Z,30.57
2024-03-07T16:48:23.185Z,29.23
2024-03-07T16:50:53.068Z,30.23
2024-03-07T16:56:12.509Z,32.90
2024-03-07T16:58:39.156Z,36.43
2024-03-07T17:01:05.565Z,33.87
2024-03-07T17:03:31.904Z,35.17
2024-03-07T17:06:01.106Z,31.43
2024-03-07T17:08:27.763Z,31.70
2024-03-07T17:10:54.310Z,33.63
2024-03-07T17:13:23.449Z,31.97
2024-03-07T17:20:53.331Z,37.43
2024-03-07T17:23:19.705Z,31.60
2024-03-07T17:25:47.123Z,33.00
2024-03-07T17:28:13.597Z,32.63
2024-03-07T17:30:40.807Z,32.67
2024-03-07T17:33:08.402Z,32.37
2024-03-07T17:35:40.463Z,32.50
2024-03-07T17:43:05.385Z,30.27
2024-03-07T17:45:34.551Z,35.97
2024-03-07T17:48:01.883Z,33.37
2024-03-07T17:50:30.798Z,32.30
2024-03-07T17:53:01.180Z,38.43
2024-03-07T17:55:29.149Z,34.03
2024-03-07T17:57:58.186Z,33.77
2024-03-07T18:05:29.880Z,33.00
2024-03-07T18:08:02.502Z,33.50
2024-03-07T18:10:36.328Z,37.07
2024-03-07T18:13:03.840Z,33.10
2024-03-07T18:15:30.434Z,33.17
2024-03-07T18:17:59.720Z,32.20
2024-03-07T18:20:30.467Z,33.70
2024-03-07T18:22:59.240Z,32.73
2024-03-07T18:25:27.561Z,34.50
2024-03-07T18:27:58.186Z,32.63
2024-03-07T18:30:27.224Z,31.27
2024-03-07T18:32:55.029Z,32.60
2024-03-07T18:35:23.975Z,32.40
2024-03-07T18:37:53.405Z,33.07
2024-03-07T18:40:24.306Z,31.87
2024-03-07T18:42:53.629Z,32.93
2024-03-07T18:45:23.824Z,34.40
2024-03-07T18:47:53.726Z,30.27
2024-03-07T18:50:22.786Z,32.90
2024-03-07T18:52:51.890Z,36.73
2024-03-07T18:55:22.817Z,32.57
2024-03-07T18:57:51.820Z,33.37
2024-03-07T19:00:32.092Z,32.63
2024-03-07T19:03:01.562Z,32.27
2024-03-07T19:05:30.804Z,33.40
2024-03-07T19:07:59.278Z,33.67
2024-03-07T19:10:30.688Z,33.43
2024-03-07T19:13:00.313Z,39.57
2024-03-07T19:15:28.350Z,34.83
2024-03-07T19:17:56.505Z,37.37
2024-03-07T19:20:24.535Z,35.33
2024-03-07T19:22:53.631Z,36.30
2024-03-07T19:25:21.685Z,37.17
2024-03-07T19:27:51.862Z,36.40
2024-03-07T19:30:20.641Z,35.07
2024-03-07T19:32:49.777Z,36.50
2024-03-07T19:35:18.232Z,36.27
2024-03-07T19:37:46.792Z,33.63
2024-03-07T19:40:16.004Z,34.53
2024-03-07T19:42:44.183Z,34.47
2024-03-07T19:45:15.145Z,32.77
2024-03-07T19:47:43.564Z,33.97
2024-03-07T19:50:12.839Z,34.07
2024-03-07T19:52:40.752Z,35.60
2024-03-07T19:55:10.947Z,35.83
2024-03-07T19:57:39.967Z,33.80
2024-03-07T20:00:10.967Z,35.40
2024-03-07T20:02:40.785Z,33.00
2024-03-07T20:05:09.909Z,31.73
2024-03-07T20:07:38.332Z,33.23
2024-03-07T20:10:08.054Z,34.53
2024-03-07T20:12:37.780Z,33.07
2024-03-07T20:15:06.166Z,31.47
2024-03-07T20:17:34.313Z,30.67
2024-03-07T20:20:15.438Z,32.20
2024-03-07T20:22:44.632Z,32.93
2024-03-07T20:25:14.172Z,33.77
2024-03-07T20:27:42.958Z,33.77
2024-03-07T20:30:12.702Z,33.03
2024-03-07T20:32:40.591Z,33.50
2024-03-07T20:35:10.855Z,34.00
2024-03-07T20:37:39.066Z,34.27
2024-03-07T20:40:10.631Z,35.03
2024-03-07T20:42:39.751Z,40.20
2024-03-07T20:45:09.231Z,35.40
2024-03-07T20:47:37.854Z,35.90
2024-03-07T20:50:10.026Z,35.20
2024-03-07T20:52:41.360Z,33.93
2024-03-07T20:55:16.299Z,36.20
2024-03-07T20:57:47.130Z,35.83
2024-03-07T21:00:16.781Z,34.63
2024-03-07T21:02:44.846Z,35.50
2024-03-07T21:05:13.216Z,33.53
2024-03-07T21:07:43.255Z,32.47
2024-03-07T21:10:14.059Z,34.37
2024-03-07T21:12:42.090Z,33.73
2024-03-07T21:15:11.233Z,34.57
2024-03-07T21:17:39.412Z,34.50
2024-03-07T21:20:13.443Z,35.87
2024-03-07T21:22:43.233Z,37.27
2024-03-07T21:25:13.924Z,36.23
2024-03-07T21:27:42.276Z,39.37
2024-03-07T21:30:11.566Z,36.43
2024-03-07T21:32:39.605Z,36.60
2024-03-07T21:35:09.209Z,38.40
2024-03-07T21:37:37.074Z,36.57
2024-03-07T21:40:08.146Z,38.23
2024-03-07T21:42:36.091Z,37.67
2024-03-07T21:45:05.450Z,37.20
2024-03-07T21:47:36.677Z,38.20
2024-03-07T21:50:06.107Z,34.80
2024-03-07T21:52:34.925Z,41.33
2024-03-07T21:55:02.624Z,40.53
2024-03-07T21:57:31.661Z,39.93
2024-03-07T22:00:00.112Z,37.17
2024-03-07T22:02:28.515Z,37.23
2024-03-07T22:07:29.942Z,34.83
2024-03-07T22:10:00.257Z,35.43
2024-03-07T22:12:28.074Z,36.27
2024-03-07T22:14:57.353Z,33.67
2024-03-07T22:17:25.071Z,34.00
2024-03-07T22:19:53.275Z,35.43
2024-03-07T22:22:21.027Z,34.07
2024-03-07T22:24:50.240Z,39.23
2024-03-07T22:27:18.153Z,31.33
2024-03-07T22:29:46.145Z,37.63
2024-03-07T22:32:15.796Z,32.60
2024-03-07T22:34:43.715Z,31.13
2024-03-07T22:37:11.523Z,31.20
2024-03-07T22:39:39.371Z,27.53
2024-03-07T22:42:07.362Z,29.33
2024-03-07T22:44:35.154Z,31.50
2024-03-07T22:47:02.837Z,32.70
2024-03-07T22:49:31.883Z,34.43
2024-03-07T22:52:00.276Z,36.03
2024-03-07T22:54:28.496Z,33.97
2024-03-07T22:56:56.300Z,39.47
2024-03-07T22:59:24.091Z,34.60
2024-03-07T23:01:52.113Z,33.80
2024-03-07T23:04:20.030Z,35.07
2024-03-07T23:06:48.985Z,34.57
2024-03-07T23:09:18.303Z,32.17
2024-03-07T23:11:46.136Z,31.60
2024-03-07T23:14:13.904Z,35.47
2024-03-07T23:16:41.971Z,34.03
2024-03-07T23:19:12.917Z,32.07
2024-03-07T23:21:43.408Z,33.50
2024-03-07T23:24:15.896Z,32.03
2024-03-07T23:26:49.086Z,33.13
2024-03-07T23:29:17.456Z,32.03
2024-03-07T23:31:45.195Z,31.13
2024-03-07T23:34:15.825Z,32.17
2024-03-07T23:36:44.265Z,30.70
2024-03-07T23:39:13.846Z,28.27
2024-03-07T23:41:43.320Z,29.47
2024-03-07T23:44:11.155Z,26.10
2024-03-07T23:46:38.966Z,25.43
2024-03-07T23:49:06.952Z,25.93
2024-03-07T23:51:34.771Z,27.53
2024-03-07T23:54:02.880Z,25.47
2024-03-07T23:56:30.855Z,26.37
2024-03-07T23:58:59.919Z,26.73
